Time;durP1;ratioP1;P1;durP2;ratioP2;P2;SDS_P1;SDS_P2;PMS_P1;PMS_P2;Temp;Humidity;BMP_temperature;BMP_pressure;BME280_temperature;BME280_humidity;BME280_pressure;Samples;Min_cycle;Max_cycle;Signal;HPM_P1;HPM_P2
2024/01/19 00:01:18;;;;;;;3.83;1.47;;;;;;;;;;4987977;28;20686;-67
2024/01/19 00:03:44;;;;;;;3.73;1.60;;;;;;;;;;5013099;28;20175;-67
2024/01/19 00:06:09;;;;;;;1.47;1.00;;;;;;;;;;5009068;28;20654;-68
2024/01/19 00:08:35;;;;;;;3.53;1.30;;;;;;;;;;5002845;28;20269;-68
2024/01/19 00:11:00;;;;;;;2.63;0.80;;;;;;;;;;5006975;28;20206;-67
2024/01/19 00:13:25;;;;;;;2.10;0.70;;;;;;;;;;5011523;28;20575;-68
2024/01/19 00:15:52;;;;;;;1.53;0.80;;;;;;;;;;5007463;28;20186;-68
2024/01/19 00:18:17;;;;;;;1.50;0.80;;;;;;;;;;4994515;28;20183;-69
2024/01/19 00:20:43;;;;;;;2.63;0.90;;;;;;;;;;5011540;28;20223;-69
2024/01/19 00:23:08;;;;;;;3.53;0.63;;;;;;;;;;5012766;28;20190;-69
2024/01/19 00:25:33;;;;;;;0.50;0.50;;;;;;;;;;5014464;28;20544;-69
2024/01/19 00:27:58;;;;;;;3.00;0.97;;;;;;;;;;5010466;28;20695;-68
2024/01/19 00:30:24;;;;;;;0.60;0.50;;;;;;;;;;5011713;28;20212;-68
2024/01/19 00:32:49;;;;;;;1.33;0.60;;;;;;;;;;5013481;28;20246;-69
2024/01/19 00:35:14;;;;;;;1.20;0.60;;;;;;;;;;5008767;28;20175;-68
2024/01/19 00:37:39;;;;;;;1.27;0.70;;;;;;;;;;5012038;28;20283;-68
2024/01/19 00:40:11;;;;;;;1.47;0.83;;;;;;;;;;5008248;28;20691;-69
2024/01/19 00:42:36;;;;;;;3.33;1.00;;;;;;;;;;5011586;28;20254;-69
2024/01/19 00:45:01;;;;;;;0.87;0.87;;;;;;;;;;5011169;28;20249;-67
2024/01/19 00:47:27;;;;;;;2.13;0.97;;;;;;;;;;5005392;28;20178;-69
2024/01/19 00:49:52;;;;;;;1.60;0.90;;;;;;;;;;4990883;28;20210;-68
2024/01/19 00:52:17;;;;;;;3.53;1.00;;;;;;;;;;5007983;28;20214;-69
2024/01/19 00:54:42;;;;;;;2.63;1.30;;;;;;;;;;4988700;28;20676;-68
2024/01/19 00:57:07;;;;;;;2.67;1.37;;;;;;;;;;5012887;28;20183;-68
2024/01/19 00:59:33;;;;;;;2.73;1.30;;;;;;;;;;5005508;28;20688;-69
2024/01/19 01:01:58;;;;;;;1.33;1.23;;;;;;;;;;5010854;28;20190;-69
2024/01/19 01:04:23;;;;;;;3.13;1.30;;;;;;;;;;5010134;28;20191;-67
2024/01/19 01:06:48;;;;;;;1.80;1.60;;;;;;;;;;5007153;28;20284;-69
2024/01/19 01:09:13;;;;;;;3.80;1.57;;;;;;;;;;5010028;28;20214;-68
2024/01/19 01:11:39;;;;;;;7.80;1.90;;;;;;;;;;5007617;28;20176;-68
2024/01/19 01:14:04;;;;;;;3.30;1.40;;;;;;;;;;5006821;28;20171;-69
2024/01/19 01:16:30;;;;;;;1.70;1.27;;;;;;;;;;5009192;28;20176;-67
2024/01/19 01:18:55;;;;;;;2.13;1.60;;;;;;;;;;5011295;28;20212;-68
2024/01/19 01:21:20;;;;;;;5.37;1.40;;;;;;;;;;5011905;28;20217;-69
2024/01/19 01:23:45;;;;;;;3.00;1.70;;;;;;;;;;5011202;28;20225;-69
2024/01/19 01:26:11;;;;;;;2.53;1.50;;;;;;;;;;5007721;28;20543;-69
2024/01/19 01:28:36;;;;;;;3.10;1.30;;;;;;;;;;5009242;28;20513;-68
2024/01/19 01:31:01;;;;;;;2.77;1.40;;;;;;;;;;5005656;28;20191;-69
2024/01/19 01:33:27;;;;;;;1.43;1.00;;;;;;;;;;5009410;28;20262;-68
2024/01/19 01:35:52;;;;;;;3.47;1.50;;;;;;;;;;4999082;28;20167;-69
2024/01/19 01:38:17;;;;;;;3.17;1.10;;;;;;;;;;5005478;28;20266;-68
2024/01/19 01:40:42;;;;;;;2.30;1.10;;;;;;;;;;5006064;28;20214;-67
2024/01/19 01:43:08;;;;;;;7.47;1.03;;;;;;;;;;5011721;28;20238;-69
2024/01/19 01:45:33;;;;;;;3.40;0.90;;;;;;;;;;5006301;28;20759;-67
2024/01/19 01:47:59;;;;;;;2.13;1.30;;;;;;;;;;5011854;28;20219;-69
2024/01/19 01:50:24;;;;;;;2.53;1.17;;;;;;;;;;5008552;28;20209;-69
2024/01/19 01:52:53;;;;;;;1.87;1.17;;;;;;;;;;5008312;28;20175;-68
2024/01/19 01:55:18;;;;;;;3.67;1.40;;;;;;;;;;5005168;28;20187;-69
2024/01/19 01:57:43;;;;;;;3.80;1.07;;;;;;;;;;5011481;28;20197;-68
2024/01/19 02:00:09;;;;;;;2.40;1.13;;;;;;;;;;4993159;28;20199;-68
2024/01/19 02:02:36;;;;;;;2.27;1.50;;;;;;;;;;5011721;28;20558;-66
2024/01/19 02:05:01;;;;;;;4.00;1.00;;;;;;;;;;5017301;28;20254;-69
2024/01/19 02:07:26;;;;;;;3.87;1.50;;;;;;;;;;5010177;28;20687;-68
2024/01/19 02:09:51;;;;;;;2.00;1.63;;;;;;;;;;5011141;28;20667;-69
2024/01/19 02:12:17;;;;;;;3.17;1.40;;;;;;;;;;5007295;28;20710;-68
2024/01/19 02:14:42;;;;;;;2.30;1.43;;;;;;;;;;5003927;28;20658;-67
2024/01/19 02:17:07;;;;;;;5.97;1.77;;;;;;;;;;5004113;28;20282;-68
2024/01/19 02:19:35;;;;;;;2.27;1.63;;;;;;;;;;5003238;28;20346;-68
2024/01/19 02:22:02;;;;;;;2.57;1.63;;;;;;;;;;5005173;28;20662;-68
2024/01/19 02:24:27;;;;;;;3.30;1.20;;;;;;;;;;5009470;28;20175;-68
2024/01/19 02:26:52;;;;;;;2.50;1.23;;;;;;;;;;5009237;28;20554;-68
2024/01/19 02:29:19;;;;;;;2.13;1.00;;;;;;;;;;5009789;28;20211;-68
2024/01/19 02:31:44;;;;;;;5.77;2.37;;;;;;;;;;5008475;28;20266;-69
2024/01/19 02:34:10;;;;;;;4.03;1.60;;;;;;;;;;5007936;28;20726;-69
2024/01/19 02:36:35;;;;;;;3.00;1.50;;;;;;;;;;5007836;28;20183;-70
2024/01/19 02:39:00;;;;;;;5.03;1.67;;;;;;;;;;5004801;28;20179;-69
2024/01/19 02:41:25;;;;;;;3.20;1.83;;;;;;;;;;5005728;28;20237;-69
2024/01/19 02:43:50;;;;;;;7.50;1.93;;;;;;;;;;5005534;28;21354;-69
2024/01/19 02:46:18;;;;;;;11.37;2.67;;;;;;;;;;5010394;28;20179;-70
2024/01/19 02:48:43;;;;;;;3.33;1.60;;;;;;;;;;5003562;28;20207;-69
2024/01/19 02:51:08;;;;;;;5.37;2.00;;;;;;;;;;5011240;28;20253;-70
2024/01/19 02:53:33;;;;;;;5.30;1.60;;;;;;;;;;5003014;28;20198;-70
2024/01/19 02:56:00;;;;;;;8.90;2.60;;;;;;;;;;5009030;28;20167;-69
2024/01/19 02:58:25;;;;;;;7.23;2.07;;;;;;;;;;5000041;28;20659;-68
2024/01/19 03:00:50;;;;;;;6.73;2.17;;;;;;;;;;4991428;28;20222;-70
2024/01/19 03:03:15;;;;;;;5.63;2.20;;;;;;;;;;5010361;28;20174;-68
2024/01/19 03:05:40;;;;;;;10.27;2.30;;;;;;;;;;5009883;28;20193;-69
2024/01/19 03:08:06;;;;;;;2.47;1.53;;;;;;;;;;5009126;28;20202;-69
2024/01/19 03:10:31;;;;;;;3.60;1.87;;;;;;;;;;5009209;28;20684;-69
2024/01/19 03:12:56;;;;;;;3.33;2.30;;;;;;;;;;5009885;28;20167;-69
2024/01/19 03:15:22;;;;;;;4.90;1.83;;;;;;;;;;5008012;28;20728;-68
2024/01/19 03:17:47;;;;;;;5.70;1.70;;;;;;;;;;5007994;28;20205;-70
2024/01/19 03:20:13;;;;;;;13.73;2.33;;;;;;;;;;5008451;28;20559;-69
2024/01/19 03:22:38;;;;;;;6.67;1.97;;;;;;;;;;5010555;28;20278;-68
2024/01/19 03:25:04;;;;;;;5.43;2.43;;;;;;;;;;5003529;28;20184;-69
2024/01/19 03:27:29;;;;;;;3.40;2.10;;;;;;;;;;5002549;28;20544;-70
2024/01/19 03:29:55;;;;;;;3.17;2.37;;;;;;;;;;5009000;28;20253;-69
2024/01/19 03:32:20;;;;;;;11.17;2.23;;;;;;;;;;4991471;28;20631;-70
2024/01/19 03:34:45;;;;;;;4.60;1.90;;;;;;;;;;5008930;28;20175;-69
2024/01/19 03:37:10;;;;;;;9.57;2.47;;;;;;;;;;5006298;28;20262;-69
2024/01/19 03:39:36;;;;;;;4.60;1.97;;;;;;;;;;5007778;28;20241;-69
2024/01/19 03:42:01;;;;;;;5.03;2.10;;;;;;;;;;5006458;28;20195;-69
2024/01/19 03:44:26;;;;;;;15.03;2.53;;;;;;;;;;5009257;28;20206;-69
2024/01/19 03:46:52;;;;;;;3.23;2.47;;;;;;;;;;4990880;28;20606;-69
2024/01/19 03:49:18;;;;;;;6.50;2.33;;;;;;;;;;5009841;28;20289;-68
2024/01/19 03:52:03;;;;;;;8.13;2.20;;;;;;;;;;5010904;28;20187;-69
2024/01/19 03:54:29;;;;;;;8.57;2.87;;;;;;;;;;5011134;28;20187;-69
2024/01/19 03:56:55;;;;;;;4.47;2.27;;;;;;;;;;5005796;28;20574;-68
2024/01/19 03:59:20;;;;;;;5.07;2.27;;;;;;;;;;5012772;28;20608;-67
2024/01/19 04:01:45;;;;;;;5.47;2.50;;;;;;;;;;5008247;28;20210;-70
2024/01/19 04:04:10;;;;;;;9.53;3.10;;;;;;;;;;5015133;28;20261;-68
2024/01/19 04:06:36;;;;;;;7.17;2.60;;;;;;;;;;4992924;28;20234;-69
2024/01/19 04:09:01;;;;;;;9.27;3.03;;;;;;;;;;5004638;28;20674;-70
2024/01/19 04:11:26;;;;;;;6.53;2.50;;;;;;;;;;5013529;28;20196;-70
2024/01/19 04:13:51;;;;;;;8.60;2.67;;;;;;;;;;5006306;28;20714;-68
2024/01/19 04:16:18;;;;;;;6.50;2.97;;;;;;;;;;5006142;28;20195;-68
2024/01/19 04:18:43;;;;;;;5.43;2.30;;;;;;;;;;5009110;28;20723;-68
2024/01/19 04:21:08;;;;;;;5.07;2.80;;;;;;;;;;5009638;28;20207;-69
2024/01/19 04:23:34;;;;;;;5.80;3.00;;;;;;;;;;5008879;28;20686;-68
2024/01/19 04:25:59;;;;;;;5.20;3.00;;;;;;;;;;5012211;28;20206;-69
2024/01/19 04:28:24;;;;;;;7.40;2.77;;;;;;;;;;5012692;28;20309;-69
2024/01/19 04:30:49;;;;;;;5.67;2.90;;;;;;;;;;5012285;28;20203;-68
2024/01/19 04:33:15;;;;;;;6.63;2.93;;;;;;;;;;5008690;28;20190;-70
2024/01/19 04:35:40;;;;;;;5.97;2.53;;;;;;;;;;5004950;28;20217;-69
2024/01/19 04:38:05;;;;;;;7.40;3.20;;;;;;;;;;5009404;28;20185;-69
2024/01/19 04:40:31;;;;;;;6.00;2.80;;;;;;;;;;5004163;28;20241;-68
2024/01/19 04:42:56;;;;;;;7.40;2.80;;;;;;;;;;5012140;28;20190;-69
2024/01/19 04:45:22;;;;;;;2.00;1.87;;;;;;;;;;4990390;28;20180;-69
2024/01/19 04:47:47;;;;;;;4.40;2.30;;;;;;;;;;4990734;28;20541;-69
2024/01/19 04:50:12;;;;;;;6.80;3.73;;;;;;;;;;5007639;28;20207;-69
2024/01/19 04:52:37;;;;;;;6.23;2.70;;;;;;;;;;4990509;28;20254;-69
2024/01/19 04:55:03;;;;;;;4.30;2.93;;;;;;;;;;5005649;28;20194;-69
2024/01/19 04:57:28;;;;;;;8.00;3.00;;;;;;;;;;5006684;28;20183;-68
2024/01/19 04:59:53;;;;;;;5.43;2.53;;;;;;;;;;5008533;28;20198;-69
2024/01/19 05:02:18;;;;;;;3.27;2.70;;;;;;;;;;5008545;28;20217;-69
2024/01/19 05:04:43;;;;;;;3.57;2.40;;;;;;;;;;4989766;28;20174;-69
2024/01/19 05:07:09;;;;;;;6.03;3.07;;;;;;;;;;5006900;28;20179;-69
2024/01/19 05:09:34;;;;;;;4.47;2.43;;;;;;;;;;5002370;28;20715;-69
2024/01/19 05:12:00;;;;;;;5.00;2.80;;;;;;;;;;5009698;28;20187;-68
2024/01/19 05:14:25;;;;;;;8.87;2.63;;;;;;;;;;5003589;28;20176;-69
2024/01/19 05:16:50;;;;;;;5.57;3.17;;;;;;;;;;5011140;28;20175;-68
2024/01/19 05:19:15;;;;;;;9.13;2.50;;;;;;;;;;5006075;28;20182;-69
2024/01/19 05:21:40;;;;;;;7.70;2.77;;;;;;;;;;5008577;28;20571;-69
2024/01/19 05:24:05;;;;;;;8.40;3.50;;;;;;;;;;5009520;28;20198;-69
2024/01/19 05:26:31;;;;;;;7.93;4.37;;;;;;;;;;5007185;28;20262;-68
2024/01/19 05:28:56;;;;;;;7.43;3.13;;;;;;;;;;5007506;28;20298;-69
2024/01/19 05:31:21;;;;;;;8.17;3.70;;;;;;;;;;5006813;28;20194;-68
2024/01/19 05:33:46;;;;;;;4.13;2.87;;;;;;;;;;5009681;28;20175;-67
2024/01/19 05:36:12;;;;;;;8.37;3.27;;;;;;;;;;5009068;28;20187;-68
2024/01/19 05:38:37;;;;;;;7.43;4.23;;;;;;;;;;5010141;28;20274;-69
2024/01/19 05:41:02;;;;;;;5.90;3.23;;;;;;;;;;5007532;28;20209;-70
2024/01/19 05:43:28;;;;;;;8.47;3.83;;;;;;;;;;5008908;28;21584;-69
2024/01/19 05:45:53;;;;;;;4.53;3.00;;;;;;;;;;5004412;28;20463;-69
2024/01/19 05:48:18;;;;;;;3.93;2.60;;;;;;;;;;5006954;28;20214;-69
2024/01/19 05:50:43;;;;;;;6.20;3.10;;;;;;;;;;5003267;28;20202;-69
2024/01/19 05:53:08;;;;;;;7.03;3.70;;;;;;;;;;5010429;28;20274;-69
2024/01/19 05:55:34;;;;;;;4.53;2.47;;;;;;;;;;5009154;28;20651;-69
2024/01/19 05:57:59;;;;;;;6.07;3.53;;;;;;;;;;5012591;28;20197;-69
2024/01/19 06:00:24;;;;;;;4.93;2.60;;;;;;;;;;5010974;28;20198;-69
2024/01/19 06:02:49;;;;;;;6.33;3.33;;;;;;;;;;5012495;28;20167;-67
2024/01/19 06:05:15;;;;;;;5.13;2.80;;;;;;;;;;5009276;28;20262;-69
2024/01/19 06:07:40;;;;;;;7.53;2.93;;;;;;;;;;5008485;28;20639;-69
2024/01/19 06:10:06;;;;;;;4.80;2.43;;;;;;;;;;5009058;28;20229;-69
2024/01/19 06:12:31;;;;;;;7.60;3.77;;;;;;;;;;5011881;28;20702;-69
2024/01/19 06:14:56;;;;;;;6.63;3.27;;;;;;;;;;5011453;28;20167;-69
2024/01/19 06:17:21;;;;;;;6.90;3.30;;;;;;;;;;5011543;28;20191;-68
2024/01/19 06:19:46;;;;;;;6.90;4.33;;;;;;;;;;5011515;28;20246;-69
2024/01/19 06:22:12;;;;;;;5.20;3.33;;;;;;;;;;5010646;28;20166;-68
2024/01/19 06:24:37;;;;;;;7.73;3.90;;;;;;;;;;4999627;28;20175;-69
2024/01/19 06:27:03;;;;;;;6.50;3.33;;;;;;;;;;5006817;28;20686;-69
2024/01/19 06:29:29;;;;;;;8.03;3.60;;;;;;;;;;5007635;28;20202;-68
2024/01/19 06:31:54;;;;;;;4.63;4.00;;;;;;;;;;5008209;28;20175;-68
2024/01/19 06:34:19;;;;;;;6.77;3.83;;;;;;;;;;5010676;28;20175;-68
2024/01/19 06:36:45;;;;;;;5.97;3.43;;;;;;;;;;5009760;28;20185;-68
2024/01/19 06:39:11;;;;;;;13.90;4.17;;;;;;;;;;5009762;28;20190;-68
2024/01/19 06:41:40;;;;;;;6.27;3.60;;;;;;;;;;5010298;28;20186;-68
2024/01/19 06:44:05;;;;;;;9.80;3.63;;;;;;;;;;5004612;28;20566;-68
2024/01/19 06:46:30;;;;;;;7.27;3.07;;;;;;;;;;4987867;28;20187;-70
2024/01/19 06:48:56;;;;;;;9.50;3.33;;;;;;;;;;5005779;28;20248;-69
2024/01/19 06:51:21;;;;;;;4.50;2.63;;;;;;;;;;4991444;28;20250;-68
2024/01/19 06:53:47;;;;;;;9.27;3.57;;;;;;;;;;5009752;28;20182;-69
2024/01/19 06:56:12;;;;;;;8.93;3.03;;;;;;;;;;5007600;28;20179;-69
2024/01/19 06:58:37;;;;;;;6.30;3.40;;;;;;;;;;5005123;28;20677;-69
2024/01/19 07:01:03;;;;;;;10.70;4.17;;;;;;;;;;5009694;28;20619;-69
2024/01/19 07:03:28;;;;;;;5.20;3.50;;;;;;;;;;5008617;28;20589;-68
2024/01/19 07:05:54;;;;;;;11.03;4.43;;;;;;;;;;5007926;28;20741;-69
2024/01/19 07:08:20;;;;;;;9.90;4.40;;;;;;;;;;5008570;28;20245;-68
2024/01/19 07:10:45;;;;;;;7.27;4.23;;;;;;;;;;5010747;28;20191;-68
2024/01/19 07:13:10;;;;;;;10.07;4.17;;;;;;;;;;4989362;28;20267;-68
2024/01/19 07:15:36;;;;;;;6.93;4.37;;;;;;;;;;5005115;28;20273;-68
2024/01/19 07:18:01;;;;;;;8.43;4.80;;;;;;;;;;5006597;28;20173;-67
2024/01/19 07:20:26;;;;;;;10.13;5.30;;;;;;;;;;5006935;28;20206;-68
2024/01/19 07:22:53;;;;;;;13.37;5.43;;;;;;;;;;5004830;28;20171;-68
2024/01/19 07:25:18;;;;;;;12.83;6.23;;;;;;;;;;5008187;28;20171;-69
2024/01/19 07:27:43;;;;;;;9.03;5.10;;;;;;;;;;5008131;28;20179;-68
2024/01/19 07:30:09;;;;;;;13.50;6.90;;;;;;;;;;5006535;28;20202;-68
2024/01/19 07:32:34;;;;;;;12.30;6.50;;;;;;;;;;5002588;28;20190;-69
2024/01/19 07:34:59;;;;;;;11.07;6.00;;;;;;;;;;5009685;28;20182;-68
2024/01/19 07:37:24;;;;;;;11.90;6.53;;;;;;;;;;5008795;28;20306;-69
2024/01/19 07:39:49;;;;;;;12.63;6.93;;;;;;;;;;5004664;28;20234;-68
2024/01/19 07:42:15;;;;;;;13.37;7.80;;;;;;;;;;5002847;28;20674;-69
2024/01/19 07:44:40;;;;;;;13.73;8.10;;;;;;;;;;5004911;28;20187;-69
2024/01/19 07:47:05;;;;;;;13.53;8.43;;;;;;;;;;5003842;28;20186;-69
2024/01/19 07:49:30;;;;;;;18.17;9.07;;;;;;;;;;4985753;28;20243;-69
2024/01/19 07:51:56;;;;;;;18.23;7.93;;;;;;;;;;4986216;28;20574;-69
2024/01/19 07:54:21;;;;;;;18.53;9.30;;;;;;;;;;4999179;28;20287;-68
2024/01/19 07:56:46;;;;;;;17.03;7.37;;;;;;;;;;4986903;28;20594;-69
2024/01/19 07:59:11;;;;;;;14.90;7.93;;;;;;;;;;5002782;28;20187;-68
2024/01/19 08:01:38;;;;;;;14.43;7.93;;;;;;;;;;5005627;28;20258;-67
2024/01/19 08:04:04;;;;;;;16.27;8.93;;;;;;;;;;5009037;28;20651;-68
2024/01/19 08:06:29;;;;;;;14.70;7.80;;;;;;;;;;5003004;28;20175;-68
2024/01/19 08:08:54;;;;;;;16.03;8.67;;;;;;;;;;5003875;28;20234;-66
2024/01/19 08:11:19;;;;;;;10.63;8.07;;;;;;;;;;5006924;28;20210;-68
2024/01/19 08:13:45;;;;;;;15.50;7.97;;;;;;;;;;5003111;28;20274;-68
2024/01/19 08:16:10;;;;;;;11.37;8.03;;;;;;;;;;5002083;28;20188;-69
2024/01/19 08:18:35;;;;;;;14.50;8.20;;;;;;;;;;5004540;28;20190;-68
2024/01/19 08:21:03;;;;;;;13.50;6.97;;;;;;;;;;5005003;28;20203;-69
2024/01/19 08:23:29;;;;;;;12.63;8.47;;;;;;;;;;5001009;28;20274;-69
2024/01/19 08:25:55;;;;;;;12.60;7.83;;;;;;;;;;5000524;28;20650;-69
2024/01/19 08:28:20;;;;;;;12.57;7.80;;;;;;;;;;5004111;28;20576;-66
2024/01/19 08:30:45;;;;;;;12.27;8.00;;;;;;;;;;5004521;28;20207;-68
2024/01/19 08:33:12;;;;;;;12.20;7.57;;;;;;;;;;4999157;28;20284;-67
2024/01/19 08:35:38;;;;;;;12.87;7.43;;;;;;;;;;5011626;28;20175;-68
2024/01/19 08:38:03;;;;;;;12.57;7.47;;;;;;;;;;5010663;28;20182;-68
2024/01/19 08:40:28;;;;;;;12.37;7.70;;;;;;;;;;5009612;28;20202;-68
2024/01/19 08:42:53;;;;;;;13.43;6.57;;;;;;;;;;5005419;28;20257;-68
2024/01/19 08:45:18;;;;;;;11.47;7.00;;;;;;;;;;5002844;28;20211;-69
2024/01/19 08:47:44;;;;;;;14.10;6.37;;;;;;;;;;5004343;28;20179;-68
2024/01/19 08:50:09;;;;;;;17.73;6.80;;;;;;;;;;5008058;28;20281;-68
2024/01/19 08:52:34;;;;;;;11.93;5.67;;;;;;;;;;5006944;28;20179;-69
2024/01/19 08:54:59;;;;;;;8.83;5.57;;;;;;;;;;4993855;28;20175;-68
2024/01/19 08:57:24;;;;;;;11.10;5.70;;;;;;;;;;5010031;28;20750;-69
2024/01/19 08:59:50;;;;;;;9.87;5.97;;;;;;;;;;5011337;28;20347;-67
2024/01/19 09:02:15;;;;;;;11.13;5.30;;;;;;;;;;5009738;28;20690;-69
2024/01/19 09:04:40;;;;;;;10.77;5.87;;;;;;;;;;5009866;28;20312;-69
2024/01/19 09:07:06;;;;;;;13.33;5.67;;;;;;;;;;5007874;28;20623;-68
2024/01/19 09:09:31;;;;;;;9.70;5.40;;;;;;;;;;5010147;28;20213;-68
2024/01/19 09:11:56;;;;;;;9.67;5.67;;;;;;;;;;5004005;28;20559;-68
2024/01/19 09:14:22;;;;;;;14.90;6.07;;;;;;;;;;4990878;28;20535;-68
2024/01/19 09:16:47;;;;;;;8.37;5.43;;;;;;;;;;5007546;28;20211;-68
2024/01/19 09:19:12;;;;;;;13.93;6.00;;;;;;;;;;5011576;28;20577;-69
2024/01/19 09:21:39;;;;;;;15.63;6.03;;;;;;;;;;5006188;28;20249;-68
2024/01/19 09:24:05;;;;;;;14.23;5.90;;;;;;;;;;5006031;28;20194;-68
2024/01/19 09:26:30;;;;;;;11.73;5.97;;;;;;;;;;5006831;28;20595;-68
2024/01/19 09:28:55;;;;;;;9.63;5.37;;;;;;;;;;5008059;28;20199;-69
2024/01/19 09:31:21;;;;;;;8.93;5.17;;;;;;;;;;5006540;28;20238;-69
2024/01/19 09:33:46;;;;;;;12.67;5.97;;;;;;;;;;5011906;28;20525;-69
2024/01/19 09:36:12;;;;;;;7.90;5.00;;;;;;;;;;5014842;28;20179;-68
2024/01/19 09:38:37;;;;;;;7.27;4.77;;;;;;;;;;5007745;28;20245;-69
2024/01/19 09:41:05;;;;;;;10.37;4.80;;;;;;;;;;4992410;28;20211;-68
2024/01/19 09:43:33;;;;;;;7.57;4.47;;;;;;;;;;5004924;28;20681;-69
2024/01/19 09:46:02;;;;;;;9.97;4.13;;;;;;;;;;5006259;28;20183;-69
2024/01/19 09:48:32;;;;;;;12.23;4.83;;;;;;;;;;5008287;28;20241;-70
2024/01/19 09:50:57;;;;;;;6.57;4.37;;;;;;;;;;5009444;28;20219;-69
2024/01/19 09:53:32;;;;;;;7.97;3.73;;;;;;;;;;5007727;28;20200;-69
2024/01/19 09:55:57;;;;;;;9.60;4.47;;;;;;;;;;5008025;28;20174;-68
2024/01/19 09:58:23;;;;;;;11.30;4.60;;;;;;;;;;5008388;28;20236;-69
2024/01/19 10:00:50;;;;;;;10.17;4.40;;;;;;;;;;4988064;28;20593;-69
2024/01/19 10:03:16;;;;;;;6.17;3.33;;;;;;;;;;4990222;28;20205;-68
2024/01/19 10:05:42;;;;;;;7.80;4.00;;;;;;;;;;5005363;28;20274;-68
2024/01/19 10:08:08;;;;;;;7.33;3.73;;;;;;;;;;5008472;28;20187;-68
2024/01/19 10:10:33;;;;;;;5.53;3.63;;;;;;;;;;5010237;28;20589;-69
2024/01/19 10:12:58;;;;;;;5.77;3.60;;;;;;;;;;4987922;28;20197;-69
2024/01/19 10:15:23;;;;;;;6.43;4.03;;;;;;;;;;5004825;28;20195;-69
2024/01/19 10:17:49;;;;;;;5.13;3.50;;;;;;;;;;5005191;28;20175;-69
2024/01/19 10:20:15;;;;;;;6.37;3.53;;;;;;;;;;5007541;28;20838;-68
2024/01/19 10:22:40;;;;;;;8.00;3.13;;;;;;;;;;5003420;28;20716;-67
2024/01/19 10:25:10;;;;;;;11.07;4.47;;;;;;;;;;5005209;28;20312;-68
2024/01/19 10:27:39;;;;;;;5.87;3.00;;;;;;;;;;5007857;28;20213;-68
2024/01/19 10:30:12;;;;;;;5.93;2.73;;;;;;;;;;5008853;28;20306;-69
2024/01/19 10:32:41;;;;;;;9.47;2.80;;;;;;;;;;5002703;28;20183;-68
2024/01/19 10:35:07;;;;;;;7.60;2.80;;;;;;;;;;5006685;28;20281;-69
2024/01/19 10:37:33;;;;;;;4.27;2.37;;;;;;;;;;5003456;28;20263;-69
2024/01/19 10:40:12;;;;;;;7.10;2.37;;;;;;;;;;5001363;28;20562;-69
2024/01/19 10:42:41;;;;;;;10.77;2.80;;;;;;;;;;5007004;28;20284;-69
2024/01/19 10:45:20;;;;;;;3.70;1.90;;;;;;;;;;5001415;28;20182;-69
2024/01/19 10:47:46;;;;;;;9.37;2.53;;;;;;;;;;4966498;28;20183;-70
2024/01/19 10:50:15;;;;;;;4.30;2.77;;;;;;;;;;5000824;28;20216;-70
2024/01/19 10:52:41;;;;;;;5.73;2.13;;;;;;;;;;5004064;28;20174;-69
2024/01/19 10:55:06;;;;;;;6.37;2.57;;;;;;;;;;5007878;28;20179;-70
2024/01/19 10:57:31;;;;;;;5.30;2.60;;;;;;;;;;5009011;28;20197;-69
2024/01/19 10:59:57;;;;;;;6.23;2.97;;;;;;;;;;5004822;28;20313;-68
2024/01/19 11:02:23;;;;;;;5.47;2.33;;;;;;;;;;5004722;28;20658;-69
2024/01/19 11:04:49;;;;;;;10.77;2.90;;;;;;;;;;5000839;28;20187;-70
2024/01/19 11:07:14;;;;;;;5.00;1.90;;;;;;;;;;5006740;28;20658;-69
2024/01/19 11:09:40;;;;;;;8.93;2.47;;;;;;;;;;5009120;28;20214;-69
2024/01/19 11:12:08;;;;;;;7.23;2.70;;;;;;;;;;5006696;28;20262;-69
2024/01/19 11:14:34;;;;;;;7.47;2.27;;;;;;;;;;5007372;28;20174;-70
2024/01/19 11:16:59;;;;;;;6.63;3.23;;;;;;;;;;5004422;28;21651;-69
2024/01/19 11:19:24;;;;;;;8.80;2.60;;;;;;;;;;4989026;28;20217;-69
2024/01/19 11:21:50;;;;;;;6.63;2.97;;;;;;;;;;5009066;28;20167;-69
2024/01/19 11:24:17;;;;;;;4.03;2.43;;;;;;;;;;5008518;28;20179;-70
2024/01/19 11:26:43;;;;;;;4.60;3.00;;;;;;;;;;5004058;28;20214;-70
2024/01/19 11:29:14;;;;;;;8.77;2.43;;;;;;;;;;5006788;28;20603;-69
2024/01/19 11:31:39;;;;;;;6.63;2.67;;;;;;;;;;5010180;28;20175;-69
2024/01/19 11:34:05;;;;;;;9.40;3.27;;;;;;;;;;5006585;28;20198;-69
2024/01/19 11:36:38;;;;;;;7.20;3.40;;;;;;;;;;5003434;28;20168;-69
2024/01/19 11:39:05;;;;;;;5.27;3.10;;;;;;;;;;5005704;28;20210;-69
2024/01/19 11:41:33;;;;;;;8.60;3.30;;;;;;;;;;5003512;28;20694;-69
2024/01/19 11:43:59;;;;;;;9.37;3.67;;;;;;;;;;5008071;28;20233;-69
2024/01/19 11:46:40;;;;;;;8.40;3.63;;;;;;;;;;5006238;28;20584;-69
2024/01/19 11:49:05;;;;;;;9.10;3.47;;;;;;;;;;5006539;28;20237;-70
2024/01/19 11:51:32;;;;;;;6.93;2.70;;;;;;;;;;5003845;28;20510;-68
2024/01/19 11:54:01;;;;;;;8.50;3.37;;;;;;;;;;5004937;28;20255;-69
2024/01/19 11:56:26;;;;;;;8.53;3.37;;;;;;;;;;5005454;28;20193;-69
2024/01/19 11:58:53;;;;;;;8.23;2.90;;;;;;;;;;5008528;28;20179;-69
2024/01/19 12:01:18;;;;;;;6.23;3.20;;;;;;;;;;5008484;28;20294;-69
2024/01/19 12:03:44;;;;;;;8.13;4.03;;;;;;;;;;5006582;28;20253;-69
2024/01/19 12:06:09;;;;;;;5.83;2.90;;;;;;;;;;5004825;28;20179;-69
2024/01/19 12:08:34;;;;;;;9.37;2.93;;;;;;;;;;5011623;28;20207;-69
2024/01/19 12:11:04;;;;;;;5.50;2.47;;;;;;;;;;5011355;28;20198;-70
2024/01/19 12:13:33;;;;;;;5.73;2.70;;;;;;;;;;5011110;28;20935;-70
2024/01/19 12:15:59;;;;;;;8.53;3.47;;;;;;;;;;5009947;28;20179;-69
2024/01/19 12:18:26;;;;;;;11.60;4.03;;;;;;;;;;5011357;28;20254;-70
2024/01/19 12:20:55;;;;;;;7.53;3.33;;;;;;;;;;5007026;28;20341;-70
2024/01/19 12:23:20;;;;;;;8.87;3.10;;;;;;;;;;5005365;28;20186;-70
2024/01/19 12:25:45;;;;;;;6.50;2.87;;;;;;;;;;5006028;28;20711;-69
2024/01/19 12:28:13;;;;;;;6.03;3.13;;;;;;;;;;5009417;28;20647;-70
2024/01/19 12:30:38;;;;;;;6.20;3.17;;;;;;;;;;4993556;28;20670;-69
2024/01/19 12:33:15;;;;;;;8.47;2.93;;;;;;;;;;5015874;28;20178;-69
2024/01/19 12:35:41;;;;;;;5.03;2.20;;;;;;;;;;5004893;28;20183;-69
2024/01/19 12:38:07;;;;;;;4.53;3.27;;;;;;;;;;5006967;28;20232;-69
2024/01/19 12:40:33;;;;;;;7.03;2.87;;;;;;;;;;5008691;28;20203;-67
2024/01/19 12:43:02;;;;;;;4.90;2.97;;;;;;;;;;5007671;28;20220;-69
2024/01/19 12:45:28;;;;;;;7.37;3.07;;;;;;;;;;5010450;28;20190;-70
2024/01/19 12:47:53;;;;;;;7.10;3.00;;;;;;;;;;4993302;28;20621;-70
2024/01/19 12:50:18;;;;;;;5.27;2.73;;;;;;;;;;5006348;28;20207;-70
2024/01/19 12:52:43;;;;;;;5.00;2.60;;;;;;;;;;5010923;28;20202;-69
2024/01/19 12:55:09;;;;;;;7.23;2.73;;;;;;;;;;5006436;28;20551;-69
2024/01/19 12:57:34;;;;;;;6.80;2.87;;;;;;;;;;5005869;28;20186;-69
2024/01/19 13:00:11;;;;;;;6.47;3.10;;;;;;;;;;5013023;28;20281;-70
2024/01/19 13:02:36;;;;;;;7.50;2.70;;;;;;;;;;5007351;28;20179;-70
2024/01/19 13:05:02;;;;;;;6.13;2.60;;;;;;;;;;4999572;28;20178;-70
2024/01/19 13:07:27;;;;;;;8.77;2.50;;;;;;;;;;5007405;28;20269;-69
2024/01/19 13:10:03;;;;;;;6.23;2.50;;;;;;;;;;5004320;28;20217;-70
2024/01/19 13:12:28;;;;;;;4.83;2.50;;;;;;;;;;5006266;28;20174;-69
2024/01/19 13:15:02;;;;;;;8.63;2.73;;;;;;;;;;5004358;28;20171;-68
2024/01/19 13:17:27;;;;;;;6.13;2.57;;;;;;;;;;5002865;28;20194;-69
2024/01/19 13:19:52;;;;;;;6.67;2.50;;;;;;;;;;5008373;28;20198;-69
2024/01/19 13:22:17;;;;;;;8.80;2.70;;;;;;;;;;5006748;28;20210;-69
2024/01/19 13:24:44;;;;;;;3.73;2.00;;;;;;;;;;4988851;28;20179;-68
2024/01/19 13:27:11;;;;;;;8.53;2.80;;;;;;;;;;4987643;28;20213;-69
2024/01/19 13:29:36;;;;;;;4.33;2.23;;;;;;;;;;5002380;28;20217;-70
2024/01/19 13:32:02;;;;;;;6.83;2.40;;;;;;;;;;5009433;28;20179;-70
2024/01/19 13:34:27;;;;;;;5.13;2.47;;;;;;;;;;5003585;28;20167;-69
2024/01/19 13:36:52;;;;;;;5.80;2.60;;;;;;;;;;5001273;28;20193;-69
2024/01/19 13:39:18;;;;;;;7.87;2.50;;;;;;;;;;5008758;28;20241;-68
2024/01/19 13:41:43;;;;;;;3.40;2.17;;;;;;;;;;5007254;28;20179;-68
2024/01/19 13:44:08;;;;;;;6.83;2.40;;;;;;;;;;4987297;28;20186;-69
2024/01/19 13:46:34;;;;;;;4.90;2.60;;;;;;;;;;4987669;28;20179;-68
2024/01/19 13:48:59;;;;;;;5.73;2.50;;;;;;;;;;5000589;28;20302;-69
2024/01/19 13:51:24;;;;;;;4.23;2.37;;;;;;;;;;5006015;28;20249;-69
2024/01/19 13:53:49;;;;;;;7.57;2.97;;;;;;;;;;5008797;28;20234;-69
2024/01/19 13:56:14;;;;;;;2.73;1.83;;;;;;;;;;4999623;28;20689;-69
2024/01/19 13:58:40;;;;;;;4.40;2.20;;;;;;;;;;5008278;28;20183;-68
2024/01/19 14:01:08;;;;;;;5.10;2.43;;;;;;;;;;5002545;28;20281;-67
2024/01/19 14:03:34;;;;;;;3.00;2.00;;;;;;;;;;5009032;28;20206;-69
2024/01/19 14:05:59;;;;;;;4.77;2.50;;;;;;;;;;5003036;28;20253;-69
2024/01/19 14:08:25;;;;;;;4.80;2.50;;;;;;;;;;5005261;28;20702;-69
2024/01/19 14:10:50;;;;;;;4.80;2.77;;;;;;;;;;5002655;28;20583;-69
2024/01/19 14:13:16;;;;;;;2.27;1.83;;;;;;;;;;4993027;28;20661;-69
2024/01/19 14:15:43;;;;;;;5.53;2.77;;;;;;;;;;5009570;28;20265;-69
2024/01/19 14:18:08;;;;;;;8.60;2.83;;;;;;;;;;5011297;28;20206;-69
2024/01/19 14:20:34;;;;;;;9.33;5.77;;;;;;;;;;5026288;23;20629;-70
2024/01/19 14:22:59;;;;;;;7.03;4.03;;;;;;;;;;5027576;28;20174;-69
2024/01/19 14:25:24;;;;;;;16.60;6.43;;;;;;;;;;5028761;28;20672;-69
2024/01/19 14:27:49;;;;;;;8.27;5.37;;;;;;;;;;5029549;28;20184;-69
2024/01/19 14:30:15;;;;;;;5.20;2.90;;;;;;;;;;5026456;28;20216;-71
2024/01/19 14:32:40;;;;;;;8.23;4.30;;;;;;;;;;5030796;28;20257;-70